createdAt,value
2017-04-14T00:00:48.835Z,8.70
2017-04-14T00:01:47.249Z,7.72
2017-04-14T00:02:45.720Z,9.02
2017-04-14T00:03:44.754Z,11.85
2017-04-14T00:04:43.089Z,9.10
2017-04-14T00:05:41.386Z,13.37
2017-04-14T00:06:39.894Z,15.33
2017-04-14T00:07:38.357Z,9.35
2017-04-14T00:08:36.797Z,11.30
2017-04-14T00:09:35.705Z,10.63
2017-04-14T00:10:34.089Z,8.55
2017-04-14T00:11:32.368Z,12.48
2017-04-14T00:12:30.822Z,10.22
2017-04-14T00:13:29.189Z,14.10
2017-04-14T00:14:27.624Z,10.23
2017-04-14T00:15:26.511Z,11.75
2017-04-14T00:16:25.378Z,9.33
2017-04-14T00:17:24.682Z,12.13
2017-04-14T00:18:22.976Z,9.55
2017-04-14T00:19:21.282Z,8.77
2017-04-14T00:20:20.460Z,12.13
2017-04-14T00:21:18.729Z,10.03
2017-04-14T00:22:17.016Z,8.62
2017-04-14T00:23:15.283Z,9.15
2017-04-14T00:24:13.800Z,12.77
2017-04-14T00:25:12.751Z,10.55
2017-04-14T00:26:11.055Z,13.98
2017-04-14T00:27:09.399Z,10.58
2017-04-14T00:28:07.729Z,11.87
2017-04-14T00:29:06.751Z,10.28
2017-04-14T00:30:05.064Z,10.12
2017-04-14T00:31:03.354Z,10.80
2017-04-14T00:32:02.370Z,13.20
2017-04-14T00:33:00.748Z,11.65
2017-04-14T00:33:59.515Z,15.60
2017-04-14T00:34:57.837Z,9.60
2017-04-14T00:35:57.625Z,12.42
2017-04-14T00:36:56.042Z,12.92
2017-04-14T00:37:54.332Z,8.57
2017-04-14T00:38:52.598Z,12.00
2017-04-14T00:39:50.863Z,12.10
2017-04-14T00:40:49.123Z,8.32
2017-04-14T00:41:47.554Z,10.90
2017-04-14T00:42:45.843Z,10.32
2017-04-14T00:43:44.215Z,11.52
2017-04-14T00:44:42.650Z,9.67
2017-04-14T00:45:40.972Z,10.47
2017-04-14T00:46:39.256Z,9.97
2017-04-14T00:47:37.681Z,11.28
2017-04-14T00:48:36.964Z,13.48
2017-04-14T00:49:35.209Z,8.20
2017-04-14T00:50:34.330Z,10.12
2017-04-14T00:51:32.633Z,7.12
2017-04-14T00:52:31.148Z,8.28
2017-04-14T00:53:30.151Z,10.50
2017-04-14T00:54:28.478Z,11.78
2017-04-14T00:55:26.837Z,12.52
2017-04-14T00:56:25.296Z,11.80
2017-04-14T00:57:23.567Z,13.37
2017-04-14T00:58:21.844Z,11.45
2017-04-14T00:59:20.830Z,8.73
2017-04-14T01:00:19.234Z,11.27
2017-04-14T01:01:17.509Z,12.75
2017-04-14T01:02:16.473Z,10.92
2017-04-14T01:03:14.863Z,11.58
2017-04-14T01:04:13.213Z,11.57
2017-04-14T01:05:11.557Z,11.20
2017-04-14T01:06:09.971Z,14.77
2017-04-14T01:07:08.325Z,26.28
2017-04-14T01:08:06.880Z,9.62
2017-04-14T01:09:05.235Z,12.73
2017-04-14T01:10:03.546Z,10.88
2017-04-14T01:11:01.793Z,10.77
2017-04-14T01:12:00.181Z,8.33
2017-04-14T01:12:58.443Z,12.65
2017-04-14T01:13:56.720Z,11.13
2017-04-14T01:14:54.977Z,11.25
2017-04-14T01:15:53.266Z,10.27
2017-04-14T01:16:51.570Z,13.05
2017-04-14T01:17:49.909Z,9.30
2017-04-14T01:18:48.201Z,14.07
2017-04-14T01:19:47.036Z,11.38
2017-04-14T01:20:45.527Z,12.92
2017-04-14T01:21:44.025Z,10.30
2017-04-14T01:22:42.867Z,10.88
2017-04-14T01:23:41.234Z,10.22
2017-04-14T01:24:40.204Z,15.38
2017-04-14T01:25:38.471Z,11.03
2017-04-14T01:26:36.843Z,11.40
2017-04-14T01:27:35.192Z,12.92
2017-04-14T01:28:34.253Z,13.70
2017-04-14T01:29:32.495Z,11.33
2017-04-14T01:30:30.886Z,10.57
2017-04-14T01:31:29.681Z,12.27
2017-04-14T01:32:28.020Z,13.18
2017-04-14T01:33:26.306Z,14.40
2017-04-14T01:34:24.575Z,11.28
2017-04-14T01:35:22.897Z,15.25
2017-04-14T01:36:21.179Z,18.17
2017-04-14T01:37:19.451Z,12.27
2017-04-14T01:38:17.694Z,11.78
2017-04-14T01:39:15.965Z,11.63
2017-04-14T01:40:14.297Z,10.83
2017-04-14T01:41:12.620Z,12.68
2017-04-14T01:42:11.496Z,11.42
2017-04-14T01:43:09.751Z,14.77
2017-04-14T01:44:08.136Z,11.30
2017-04-14T01:45:06.413Z,12.75
2017-04-14T01:46:05.422Z,17.25
2017-04-14T01:47:04.493Z,12.98
2017-04-14T01:48:02.880Z,9.35
2017-04-14T01:49:02.090Z,10.55
2017-04-14T01:50:00.410Z,12.05
2017-04-14T01:50:58.803Z,14.10
2017-04-14T01:51:57.121Z,11.83
2017-04-14T01:52:55.372Z,13.78
2017-04-14T01:53:53.599Z,13.08
2017-04-14T01:54:52.500Z,14.22
2017-04-14T01:55:50.820Z,10.98
2017-04-14T01:56:49.258Z,15.32
2017-04-14T01:57:47.538Z,12.95
2017-04-14T01:58:45.969Z,10.20
2017-04-14T01:59:44.490Z,16.78
2017-04-14T02:00:42.780Z,9.73
2017-04-14T02:01:41.079Z,12.33
2017-04-14T02:02:39.488Z,13.82
2017-04-14T02:03:37.707Z,13.53
2017-04-14T02:04:36.740Z,13.60
2017-04-14T02:05:35.441Z,13.03
2017-04-14T02:06:33.710Z,10.07
2017-04-14T02:07:32.273Z,13.23
2017-04-14T02:08:30.557Z,10.32
2017-04-14T02:09:29.709Z,12.28
2017-04-14T02:10:28.030Z,10.93
2017-04-14T02:11:26.373Z,12.68
2017-04-14T02:12:25.431Z,20.98
2017-04-14T02:13:23.654Z,12.92
2017-04-14T02:14:22.001Z,18.43
2017-04-14T02:15:20.343Z,12.93
2017-04-14T02:16:19.429Z,10.93
2017-04-14T02:17:17.723Z,14.28
2017-04-14T02:18:16.809Z,11.50
2017-04-14T02:19:15.160Z,13.68
2017-04-14T02:20:13.482Z,15.30
2017-04-14T02:21:11.711Z,12.97
2017-04-14T02:22:10.762Z,13.48
2017-04-14T02:23:10.136Z,11.93
2017-04-14T02:24:09.091Z,11.38
2017-04-14T02:25:08.426Z,11.80
2017-04-14T02:26:07.543Z,18.35
2017-04-14T02:27:07.223Z,13.30
2017-04-14T02:28:05.522Z,12.43
2017-04-14T02:29:03.887Z,17.67
2017-04-14T02:30:02.275Z,18.77
2017-04-14T02:31:00.526Z,12.28
2017-04-14T02:31:59.623Z,14.23
2017-04-14T02:32:59.327Z,14.42
2017-04-14T02:33:58.102Z,11.65
2017-04-14T02:34:56.759Z,14.77
2017-04-14T02:35:55.734Z,12.13
2017-04-14T02:36:54.047Z,15.38
2017-04-14T02:37:52.500Z,16.83
2017-04-14T02:38:50.767Z,11.95
2017-04-14T02:39:50.050Z,16.55
2017-04-14T02:40:48.285Z,12.52
2017-04-14T02:41:46.550Z,15.27
2017-04-14T02:42:44.895Z,17.93
2017-04-14T02:43:43.213Z,14.80
2017-04-14T02:44:42.173Z,21.13
2017-04-14T02:45:40.829Z,16.32
2017-04-14T02:46:39.268Z,13.78
2017-04-14T02:47:37.585Z,15.52
2017-04-14T02:48:36.062Z,17.77
2017-04-14T02:49:34.331Z,15.23
2017-04-14T02:50:32.677Z,16.53
2017-04-14T02:51:30.927Z,16.70
2017-04-14T02:52:29.545Z,14.73
2017-04-14T02:53:28.564Z,15.80
2017-04-14T02:54:26.799Z,15.67
2017-04-14T02:55:25.101Z,14.35
2017-04-14T02:56:24.271Z,13.90
2017-04-14T02:57:23.178Z,16.05
2017-04-14T02:58:21.553Z,16.88
2017-04-14T02:59:19.881Z,15.25
2017-04-14T03:00:18.830Z,18.90
2017-04-14T03:01:17.149Z,16.23
2017-04-14T03:02:15.416Z,18.32
2017-04-14T03:03:13.861Z,16.82
2017-04-14T03:04:12.883Z,18.55
2017-04-14T03:05:11.275Z,19.57
2017-04-14T03:06:09.579Z,21.67
2017-04-14T03:07:08.684Z,19.15
2017-04-14T03:08:06.953Z,21.18
2017-04-14T03:09:05.383Z,15.45
2017-04-14T03:10:03.710Z,22.50
2017-04-14T03:11:02.014Z,17.97
2017-04-14T03:12:00.350Z,19.40
2017-04-14T03:12:58.654Z,15.67
2017-04-14T03:13:57.095Z,30.25
2017-04-14T03:14:55.517Z,21.00
2017-04-14T03:15:53.920Z,19.33
2017-04-14T03:16:52.196Z,22.32
2017-04-14T03:17:50.557Z,24.63
2017-04-14T03:18:48.994Z,25.37
2017-04-14T03:19:47.352Z,20.75
2017-04-14T03:20:46.430Z,26.27
2017-04-14T03:21:44.761Z,17.20
2017-04-14T03:22:43.095Z,21.25
2017-04-14T03:23:41.355Z,25.45
2017-04-14T03:24:39.665Z,23.62
2017-04-14T03:25:38.027Z,19.73
2017-04-14T03:26:36.348Z,22.37
2017-04-14T03:27:34.831Z,21.62
2017-04-14T03:28:33.113Z,24.18
2017-04-14T03:29:31.483Z,25.05
2017-04-14T03:30:29.996Z,24.17
2017-04-14T03:31:28.947Z,22.55
2017-04-14T03:32:27.219Z,19.38
2017-04-14T03:33:25.579Z,23.65
2017-04-14T03:34:23.851Z,19.90
2017-04-14T03:35:22.142Z,18.50
2017-04-14T03:36:20.520Z,27.95
2017-04-14T03:37:18.813Z,23.10
2017-04-14T03:38:17.134Z,21.20
2017-04-14T03:39:15.372Z,25.52
2017-04-14T03:40:13.639Z,20.75
2017-04-14T03:41:11.927Z,27.47
2017-04-14T03:42:10.202Z,24.73
2017-04-14T03:43:08.524Z,27.05
2017-04-14T03:44:06.916Z,27.18
2017-04-14T03:45:05.237Z,27.65
2017-04-14T03:46:03.549Z,26.62
2017-04-14T03:47:01.855Z,26.07
2017-04-14T03:48:00.655Z,26.17
2017-04-14T03:48:59.745Z,24.80
2017-04-14T03:49:58.850Z,24.60
2017-04-14T03:50:57.179Z,24.43
2017-04-14T03:51:56.303Z,29.47
2017-04-14T03:52:54.802Z,23.95
2017-04-14T03:53:53.248Z,27.17
2017-04-14T03:54:51.560Z,23.62
2017-04-14T03:55:49.978Z,22.75
2017-04-14T03:56:48.312Z,23.85
2017-04-14T03:57:46.589Z,26.73
2017-04-14T03:58:44.971Z,23.02
2017-04-14T03:59:44.576Z,25.43
2017-04-14T04:00:42.851Z,28.88
2017-04-14T04:01:41.112Z,26.47
2017-04-14T04:02:39.443Z,27.92
2017-04-14T04:03:37.811Z,32.72
2017-04-14T04:04:36.062Z,25.63
2017-04-14T04:05:34.345Z,24.78
2017-04-14T04:06:32.714Z,23.02
2017-04-14T04:07:31.026Z,29.30
2017-04-14T04:08:29.343Z,25.75
2017-04-14T04:09:27.637Z,26.43
2017-04-14T04:10:26.721Z,25.23
2017-04-14T04:11:25.011Z,29.82
2017-04-14T04:12:23.295Z,27.43
2017-04-14T04:13:21.664Z,28.40
2017-04-14T04:14:21.148Z,30.70
2017-04-14T04:15:20.191Z,24.75
2017-04-14T04:16:18.912Z,31.40
2017-04-14T04:17:17.275Z,21.15
2017-04-14T04:18:15.641Z,33.98
2017-04-14T04:19:14.106Z,25.67
2017-04-14T04:20:12.343Z,32.07
2017-04-14T04:21:11.123Z,27.85
2017-04-14T04:22:09.524Z,26.65
2017-04-14T04:23:08.378Z,25.10
2017-04-14T04:24:07.519Z,26.27
2017-04-14T04:25:05.877Z,28.37
2017-04-14T04:26:05.212Z,30.47
2017-04-14T04:27:03.610Z,29.48
2017-04-14T04:28:02.016Z,28.85
2017-04-14T04:29:00.469Z,29.40
2017-04-14T04:29:58.751Z,23.73
2017-04-14T04:30:57.648Z,26.80
2017-04-14T04:33:00.417Z,28.15
2017-04-14T04:34:04.274Z,29.77
2017-04-14T04:35:03.311Z,24.58
2017-04-14T04:36:01.739Z,27.88
2017-04-14T04:37:00.123Z,25.42
2017-04-14T04:37:58.435Z,22.63
2017-04-14T04:38:56.737Z,31.55
2017-04-14T04:39:55.024Z,26.97
2017-04-14T04:40:53.316Z,21.95
2017-04-14T04:41:52.317Z,24.27
2017-04-14T04:42:51.408Z,26.18
2017-04-14T04:43:50.967Z,24.27
2017-04-14T04:44:49.500Z,33.17
2017-04-14T04:45:47.848Z,21.70
2017-04-14T04:46:46.119Z,25.75
2017-04-14T04:47:44.486Z,21.02
2017-04-14T04:48:42.713Z,28.78
2017-04-14T04:49:41.063Z,23.93
2017-04-14T04:50:39.336Z,22.13
2017-04-14T04:51:37.568Z,26.75
2017-04-14T04:52:36.654Z,24.03
2017-04-14T04:53:35.669Z,22.40
2017-04-14T04:54:34.630Z,27.02
2017-04-14T04:55:33.117Z,25.03
2017-04-14T04:56:31.479Z,21.85
2017-04-14T04:57:29.874Z,25.78
2017-04-14T04:58:28.395Z,24.98
2017-04-14T04:59:26.715Z,26.92
2017-04-14T05:00:25.347Z,32.62
2017-04-14T05:01:24.390Z,20.80
2017-04-14T05:02:22.775Z,25.40
2017-04-14T05:03:21.012Z,23.05
2017-04-14T05:04:19.538Z,23.05
2017-04-14T05:05:17.900Z,23.67
2017-04-14T05:06:17.004Z,21.90
2017-04-14T05:07:15.344Z,28.18
2017-04-14T05:08:14.199Z,24.57
2017-04-14T05:09:12.552Z,24.67
2017-04-14T05:10:12.182Z,22.33
2017-04-14T05:11:10.736Z,25.68
2017-04-14T05:12:08.987Z,25.18
2017-04-14T05:13:07.453Z,29.15
2017-04-14T05:14:05.781Z,28.82
2017-04-14T05:15:04.755Z,24.62
2017-04-14T05:16:03.591Z,27.77
2017-04-14T05:17:01.947Z,28.43
2017-04-14T05:18:00.359Z,24.78
2017-04-14T05:18:58.709Z,25.10
2017-04-14T05:19:57.673Z,24.55
2017-04-14T05:20:56.060Z,29.80
2017-04-14T05:21:54.298Z,22.33
2017-04-14T05:22:52.701Z,22.72
2017-04-14T05:23:51.196Z,30.68
2017-04-14T05:24:49.473Z,27.95
2017-04-14T05:25:48.581Z,24.90
2017-04-14T05:26:47.572Z,25.87
2017-04-14T05:27:45.868Z,33.33
2017-04-14T05:28:44.155Z,28.78
2017-04-14T05:29:42.550Z,36.52
2017-04-14T05:30:40.935Z,25.18
2017-04-14T05:31:39.732Z,29.63
2017-04-14T05:32:37.996Z,30.63
2017-04-14T05:33:36.245Z,28.95
2017-04-14T05:34:34.568Z,28.13
2017-04-14T05:35:32.960Z,33.73
2017-04-14T05:36:31.922Z,27.27
2017-04-14T05:37:30.389Z,32.25
2017-04-14T05:38:28.761Z,24.08
2017-04-14T05:39:27.250Z,35.68
2017-04-14T05:40:25.681Z,32.15
2017-04-14T05:41:25.052Z,30.15
2017-04-14T05:42:23.375Z,28.77
2017-04-14T05:43:21.741Z,29.80
2017-04-14T05:44:20.140Z,32.90
2017-04-14T05:45:18.413Z,28.87
2017-04-14T05:46:16.720Z,33.88
2017-04-14T05:47:15.061Z,26.35
2017-04-14T05:48:13.560Z,31.57
2017-04-14T05:49:12.357Z,34.57
2017-04-14T05:50:10.714Z,31.20
2017-04-14T05:51:09.090Z,27.93
2017-04-14T05:52:07.430Z,30.00
2017-04-14T05:53:05.709Z,30.05
2017-04-14T05:54:03.974Z,31.08
2017-04-14T05:55:02.269Z,31.67
2017-04-14T05:56:00.556Z,29.27
2017-04-14T05:56:59.592Z,25.15
2017-04-14T05:57:58.503Z,28.40
2017-04-14T05:58:57.537Z,32.58
2017-04-14T05:59:55.807Z,27.93
2017-04-14T06:00:54.165Z,28.98
2017-04-14T06:01:52.478Z,24.65
2017-04-14T06:02:50.792Z,28.02
2017-04-14T06:03:49.307Z,25.95
2017-04-14T06:04:47.790Z,24.87
2017-04-14T06:05:46.103Z,23.00
2017-04-14T06:06:44.449Z,20.05
2017-04-14T06:07:42.731Z,25.77
2017-04-14T06:08:41.115Z,22.25
2017-04-14T06:09:39.481Z,22.32
2017-04-14T06:10:37.991Z,22.53
2017-04-14T06:11:39.554Z,22.55
2017-04-14T06:12:38.937Z,25.98
2017-04-14T06:13:37.608Z,41.33
2017-04-14T06:14:35.876Z,24.58
2017-04-14T06:15:34.436Z,23.97
2017-04-14T06:16:32.886Z,25.88
2017-04-14T06:17:31.341Z,24.67
2017-04-14T06:18:29.631Z,27.58
2017-04-14T06:19:28.094Z,25.97
2017-04-14T06:20:26.423Z,27.33
2017-04-14T06:21:25.471Z,23.45
2017-04-14T06:22:23.753Z,20.35
2017-04-14T06:23:22.147Z,25.00
2017-04-14T06:24:21.270Z,29.17
2017-04-14T06:25:19.664Z,25.80
2017-04-14T06:26:18.509Z,24.33
2017-04-14T06:27:16.876Z,25.18
2017-04-14T06:28:15.132Z,25.33
2017-04-14T06:29:13.408Z,23.97
2017-04-14T06:30:11.784Z,26.05
2017-04-14T06:31:11.316Z,27.20
2017-04-14T06:32:09.957Z,28.35
2017-04-14T06:33:08.419Z,30.35
2017-04-14T06:34:06.732Z,21.93
2017-04-14T06:35:05.051Z,19.97
2017-04-14T06:36:03.430Z,25.07
2017-04-14T06:37:01.952Z,23.05
2017-04-14T06:38:00.213Z,22.00
2017-04-14T06:38:58.564Z,23.04
2017-04-14T06:39:56.852Z,20.71
2017-04-14T06:40:55.563Z,24.57
2017-04-14T06:41:54.589Z,25.39
2017-04-14T06:42:52.973Z,21.64
2017-04-14T06:43:51.381Z,24.01
2017-04-14T06:44:49.696Z,21.07
2017-04-14T06:45:47.962Z,24.14
2017-04-14T06:46:46.255Z,23.17
2017-04-14T06:47:44.572Z,27.76
2017-04-14T06:48:42.892Z,24.04
2017-04-14T06:49:41.850Z,22.70
2017-04-14T06:50:40.151Z,17.31
2017-04-14T06:51:38.433Z,18.00
2017-04-14T06:52:36.820Z,20.50
2017-04-14T06:53:35.305Z,24.90
2017-04-14T06:54:34.243Z,20.81
2017-04-14T06:55:33.340Z,22.70
2017-04-14T06:56:31.592Z,19.83
2017-04-14T06:57:30.630Z,17.86
2017-04-14T06:58:29.011Z,18.94
2017-04-14T06:59:27.363Z,22.84
2017-04-14T07:00:25.740Z,18.51
2017-04-14T07:01:24.063Z,17.33
2017-04-14T07:02:23.130Z,15.17
2017-04-14T07:03:22.139Z,16.77
2017-04-14T07:04:20.840Z,19.24
2017-04-14T07:05:19.201Z,14.56
2017-04-14T07:06:18.379Z,16.93
2017-04-14T07:07:16.810Z,17.83
2017-04-14T07:08:15.059Z,19.74
2017-04-14T07:09:13.367Z,18.14
2017-04-14T07:10:13.804Z,19.24
2017-04-14T07:11:12.161Z,14.84
2017-04-14T07:12:10.663Z,17.19
2017-04-14T07:13:08.935Z,19.33
2017-04-14T07:14:07.262Z,20.76
2017-04-14T07:15:05.555Z,22.19
2017-04-14T07:16:03.881Z,14.81
2017-04-14T07:17:02.982Z,17.54
2017-04-14T07:18:01.267Z,19.29
2017-04-14T07:18:59.566Z,19.09
2017-04-14T07:19:57.791Z,15.64
2017-04-14T07:20:56.408Z,15.34
2017-04-14T07:21:54.799Z,18.39
2017-04-14T07:22:53.776Z,21.03
2017-04-14T07:23:52.208Z,18.99
2017-04-14T07:24:50.764Z,17.29
2017-04-14T07:25:49.296Z,20.34
2017-04-14T07:26:47.894Z,20.57
2017-04-14T07:27:46.202Z,14.00
2017-04-14T07:28:44.617Z,16.23
2017-04-14T07:29:42.911Z,20.20
2017-04-14T07:30:41.186Z,17.41
2017-04-14T07:31:39.591Z,14.34
2017-04-14T07:32:37.875Z,16.94
2017-04-14T07:33:36.281Z,16.87
2017-04-14T07:34:34.700Z,18.57
2017-04-14T07:35:33.522Z,18.84
2017-04-14T07:36:32.565Z,16.83
2017-04-14T07:37:30.920Z,18.56
2017-04-14T07:38:29.245Z,22.16
2017-04-14T07:39:28.416Z,18.17
2017-04-14T07:40:26.821Z,22.29
2017-04-14T07:41:25.286Z,15.40
2017-04-14T07:42:24.395Z,16.71
2017-04-14T07:43:22.746Z,14.26
2017-04-14T07:44:21.666Z,21.99
2017-04-14T07:45:20.695Z,16.04
2017-04-14T07:46:19.721Z,18.13
2017-04-14T07:47:18.659Z,15.89
2017-04-14T07:48:17.206Z,15.57
2017-04-14T07:49:16.120Z,15.91
2017-04-14T07:50:14.412Z,14.40
2017-04-14T07:51:12.711Z,16.71
2017-04-14T07:52:11.136Z,12.13
2017-04-14T07:53:10.093Z,12.89
2017-04-14T07:54:09.226Z,15.44
2017-04-14T07:55:07.674Z,14.63
2017-04-14T07:56:06.028Z,13.91
2017-04-14T07:57:04.395Z,16.39
2017-04-14T07:58:02.844Z,14.53
2017-04-14T07:59:01.151Z,13.84
2017-04-14T07:59:59.552Z,14.79
2017-04-14T08:00:57.815Z,12.81
2017-04-14T08:01:56.082Z,17.76
2017-04-14T08:02:54.345Z,13.41
2017-04-14T08:03:52.729Z,13.19
2017-04-14T08:04:50.995Z,16.83
2017-04-14T08:05:50.113Z,14.71
2017-04-14T08:06:49.223Z,12.17
2017-04-14T08:07:47.462Z,12.79
2017-04-14T08:08:45.771Z,14.00
2017-04-14T08:09:44.540Z,13.24
2017-04-14T08:10:42.809Z,14.14
2017-04-14T08:11:41.236Z,14.33
2017-04-14T08:12:39.502Z,9.93
2017-04-14T08:13:37.784Z,9.59
2017-04-14T08:14:36.911Z,11.90
2017-04-14T08:15:35.228Z,13.20
2017-04-14T08:16:33.520Z,15.61
2017-04-14T08:17:32.035Z,12.84
2017-04-14T08:18:30.384Z,9.67
2017-04-14T08:19:28.779Z,16.73
2017-04-14T08:20:27.079Z,11.29
2017-04-14T08:21:26.127Z,14.26
2017-04-14T08:22:24.655Z,14.13
2017-04-14T08:23:23.582Z,14.20
2017-04-14T08:24:21.842Z,13.00
2017-04-14T08:25:20.286Z,10.46
2017-04-14T08:26:18.569Z,11.86
2017-04-14T08:27:16.836Z,14.09
2017-04-14T08:28:15.064Z,9.03
2017-04-14T08:29:13.310Z,11.64
2017-04-14T08:30:11.600Z,10.29
2017-04-14T08:31:09.913Z,12.44
2017-04-14T08:32:08.500Z,13.43
2017-04-14T08:33:07.560Z,12.87
2017-04-14T08:34:06.366Z,11.89
2017-04-14T08:35:04.644Z,9.00
2017-04-14T08:36:03.093Z,9.81
2017-04-14T08:37:01.427Z,12.21
2017-04-14T08:37:59.786Z,10.69
2017-04-14T08:38:58.188Z,10.84
2017-04-14T08:39:56.453Z,14.36
2017-04-14T08:40:54.755Z,12.49
2017-04-14T08:41:53.499Z,12.40
2017-04-14T08:42:51.774Z,15.30
2017-04-14T08:43:50.091Z,11.67
2017-04-14T08:44:47.777Z,13.33
2017-04-14T08:45:46.042Z,11.76
2017-04-14T08:46:44.302Z,11.20
2017-04-14T08:47:42.551Z,10.91
2017-04-14T08:48:40.830Z,13.39
2017-04-14T08:49:39.370Z,15.09
2017-04-14T08:50:38.420Z,9.21
2017-04-14T08:51:38.631Z,9.54
2017-04-14T08:52:36.921Z,12.79
2017-04-14T08:53:35.939Z,13.10
2017-04-14T08:54:34.444Z,14.69
2017-04-14T08:55:32.841Z,12.53
2017-04-14T08:56:31.082Z,13.10
2017-04-14T08:57:29.355Z,10.49
2017-04-14T08:58:27.655Z,13.17
2017-04-14T08:59:26.875Z,14.56
2017-04-14T09:00:25.215Z,15.39
2017-04-14T09:01:23.579Z,11.41
2017-04-14T09:02:21.922Z,11.90
2017-04-14T09:03:20.433Z,12.13
2017-04-14T09:04:19.338Z,15.39
2017-04-14T09:05:18.792Z,12.23
2017-04-14T09:06:18.209Z,9.90
2017-04-14T09:07:17.440Z,9.54
2017-04-14T09:08:16.235Z,12.06
2017-04-14T09:09:14.612Z,12.30
2017-04-14T09:10:12.878Z,9.96
2017-04-14T09:11:12.012Z,20.00
2017-04-14T09:12:10.337Z,9.11
2017-04-14T09:13:08.652Z,9.06
2017-04-14T09:14:06.932Z,10.56
2017-04-14T09:15:05.221Z,10.16
2017-04-14T09:16:04.213Z,10.73
2017-04-14T09:17:02.679Z,9.44
2017-04-14T09:18:00.979Z,9.49
2017-04-14T09:19:00.035Z,14.57
2017-04-14T09:19:58.410Z,8.76
2017-04-14T09:20:56.722Z,13.49
2017-04-14T09:21:55.102Z,10.79
2017-04-14T09:22:53.469Z,7.90
2017-04-14T09:23:52.608Z,5.90
2017-04-14T09:24:50.875Z,9.83
2017-04-14T09:25:49.211Z,10.77
2017-04-14T09:26:47.640Z,7.01
2017-04-14T09:27:46.055Z,9.81
2017-04-14T09:28:44.299Z,10.26
2017-04-14T09:29:42.564Z,10.04
2017-04-14T09:30:40.827Z,9.96
2017-04-14T09:31:39.320Z,9.96
2017-04-14T09:32:38.260Z,13.96
2017-04-14T09:33:36.636Z,12.00
2017-04-14T09:34:34.923Z,8.46
2017-04-14T09:35:33.164Z,10.33
2017-04-14T09:36:31.528Z,10.37
2017-04-14T09:37:29.838Z,7.03
2017-04-14T09:38:28.980Z,12.09
2017-04-14T09:39:27.241Z,13.59
2017-04-14T09:40:25.563Z,9.90
2017-04-14T09:41:23.870Z,10.09
2017-04-14T09:42:22.920Z,11.86
2017-04-14T09:43:21.156Z,12.13
2017-04-14T09:44:19.628Z,8.89
2017-04-14T09:45:17.883Z,7.37
2017-04-14T09:46:16.140Z,11.76
2017-04-14T09:47:14.639Z,17.77
2017-04-14T09:48:16.728Z,7.39
2017-04-14T09:49:17.174Z,8.87
2017-04-14T09:50:16.209Z,8.43
2017-04-14T09:51:14.545Z,8.24
2017-04-14T09:52:13.427Z,12.37
2017-04-14T09:53:11.841Z,14.44
2017-04-14T09:54:10.305Z,11.71
2017-04-14T09:55:08.584Z,22.00
2017-04-14T09:56:06.939Z,7.69
2017-04-14T09:57:05.234Z,9.71
2017-04-14T09:58:03.557Z,7.23
2017-04-14T09:59:01.903Z,7.23
2017-04-14T10:00:00.179Z,9.40
2017-04-14T10:00:58.588Z,11.71
2017-04-14T10:01:56.895Z,12.39
2017-04-14T10:02:55.920Z,7.89
2017-04-14T10:03:55.583Z,14.46
2017-04-14T10:04:54.595Z,9.13
2017-04-14T10:05:53.018Z,9.31
2017-04-14T10:06:52.064Z,15.73
2017-04-14T10:07:50.347Z,9.04
2017-04-14T10:08:48.739Z,12.70
2017-04-14T10:09:47.790Z,13.44
2017-04-14T10:10:46.043Z,11.74
2017-04-14T10:11:44.339Z,12.21
2017-04-14T10:12:43.081Z,17.20
2017-04-14T10:13:42.075Z,10.87
2017-04-14T10:14:40.370Z,13.83
2017-04-14T10:15:38.996Z,11.34
2017-04-14T10:16:37.324Z,9.51
2017-04-14T10:17:35.629Z,12.17
2017-04-14T10:18:33.945Z,14.80
2017-04-14T10:19:32.226Z,12.24
2017-04-14T10:20:30.445Z,10.01
2017-04-14T10:21:28.906Z,14.77
2017-04-14T10:22:27.330Z,10.94
2017-04-14T10:23:25.652Z,13.59
2017-04-14T10:24:24.069Z,11.17
2017-04-14T10:25:23.112Z,13.19
2017-04-14T10:26:21.545Z,13.99
2017-04-14T10:27:19.898Z,10.90
2017-04-14T10:28:18.377Z,10.44
2017-04-14T10:29:17.330Z,11.44
2017-04-14T10:30:15.586Z,11.50
2017-04-14T10:31:14.861Z,12.23
2017-04-14T10:32:13.687Z,11.39
2017-04-14T10:33:12.354Z,21.31
2017-04-14T10:34:11.654Z,15.97
2017-04-14T10:35:10.742Z,11.93
2017-04-14T10:36:09.811Z,11.70
2017-04-14T10:37:08.322Z,10.90
2017-04-14T10:38:06.606Z,11.00
2017-04-14T10:39:05.153Z,8.31
2017-04-14T10:40:03.503Z,10.99
2017-04-14T10:41:02.548Z,12.66
2017-04-14T10:42:00.852Z,12.04
2017-04-14T10:42:59.208Z,10.31
2017-04-14T10:43:57.612Z,8.53
2017-04-14T10:44:56.065Z,9.09
2017-04-14T10:45:55.111Z,16.67
2017-04-14T10:46:53.571Z,11.61
2017-04-14T10:47:52.512Z,7.43
2017-04-14T10:48:50.898Z,18.84
2017-04-14T10:49:49.911Z,16.34
2017-04-14T10:50:48.394Z,14.36
2017-04-14T10:51:46.651Z,10.90
2017-04-14T10:52:45.086Z,9.89
2017-04-14T10:53:43.360Z,10.60
2017-04-14T10:54:41.652Z,6.06
2017-04-14T10:55:40.004Z,12.66
2017-04-14T10:56:38.388Z,11.11
2017-04-14T10:57:36.727Z,8.56
2017-04-14T10:58:35.123Z,11.01
2017-04-14T10:59:33.545Z,11.46
2017-04-14T11:00:32.685Z,16.84
2017-04-14T11:01:31.057Z,11.53
2017-04-14T11:02:29.546Z,11.79
2017-04-14T11:03:28.426Z,11.27
2017-04-14T11:04:26.761Z,11.34
2017-04-14T11:05:25.161Z,12.97
2017-04-14T11:06:24.200Z,9.44
2017-04-14T11:07:22.623Z,8.60
2017-04-14T11:08:20.889Z,11.34
2017-04-14T11:09:19.203Z,9.20
2017-04-14T11:10:17.566Z,9.64
2017-04-14T11:11:16.164Z,12.04
2017-04-14T11:12:15.354Z,7.07
2017-04-14T11:13:15.484Z,7.37
2017-04-14T11:14:15.760Z,7.77
2017-04-14T11:15:14.343Z,8.53
2017-04-14T11:16:13.832Z,8.86
2017-04-14T11:17:12.251Z,11.60
2017-04-14T11:18:11.446Z,12.19
2017-04-14T11:19:10.715Z,9.07
2017-04-14T11:20:09.824Z,11.73
2017-04-14T11:21:08.470Z,8.59
2017-04-14T11:22:07.513Z,7.27
2017-04-14T11:23:05.952Z,8.33
2017-04-14T11:24:04.372Z,7.40
2017-04-14T11:25:02.780Z,7.83
2017-04-14T11:26:13.118Z,6.96
2017-04-14T11:27:15.179Z,6.64
2017-04-14T11:28:23.648Z,14.19
2017-04-14T11:29:21.961Z,8.19
2017-04-14T11:30:20.273Z,9.06
2017-04-14T11:31:19.042Z,8.33
2017-04-14T11:32:20.734Z,9.51
2017-04-14T11:33:21.080Z,8.79
2017-04-14T11:34:21.025Z,9.23
2017-04-14T11:35:21.034Z,9.71
2017-04-14T11:36:21.223Z,9.31
2017-04-14T11:37:20.161Z,6.43
2017-04-14T11:38:18.502Z,8.86
2017-04-14T11:39:17.506Z,6.66
2017-04-14T11:40:16.002Z,7.51
2017-04-14T11:41:15.231Z,6.67
2017-04-14T11:42:14.305Z,5.70
2017-04-14T11:43:12.678Z,7.43
2017-04-14T11:44:10.983Z,9.13
2017-04-14T11:45:10.268Z,5.76
2017-04-14T11:46:09.502Z,11.53
2017-04-14T11:47:09.105Z,8.54
2017-04-14T11:48:08.831Z,6.23
2017-04-14T11:49:07.187Z,10.01
2017-04-14T11:50:06.481Z,7.84
2017-04-14T11:51:05.163Z,8.54
2017-04-14T11:52:03.459Z,6.19
2017-04-14T11:53:01.762Z,10.80
2017-04-14T11:54:00.874Z,6.20
2017-04-14T11:54:59.503Z,7.06
2017-04-14T11:55:58.698Z,8.14
2017-04-14T11:56:56.974Z,6.86
2017-04-14T11:57:56.155Z,6.00
2017-04-14T11:58:54.937Z,6.23
2017-04-14T11:59:53.973Z,4.90
2017-04-14T12:00:52.326Z,11.39
2017-04-14T12:01:50.719Z,12.74
2017-04-14T12:02:49.184Z,11.14
2017-04-14T12:03:47.703Z,12.17
2017-04-14T12:04:46.016Z,6.41
2017-04-14T12:05:45.980Z,7.39
2017-04-14T12:06:45.645Z,6.99
2017-04-14T12:07:44.050Z,7.79
2017-04-14T12:08:42.408Z,10.03
2017-04-14T12:09:40.759Z,6.99
2017-04-14T12:10:39.660Z,7.89
2017-04-14T12:11:37.947Z,6.50
2017-04-14T12:12:36.946Z,5.77
2017-04-14T12:13:35.281Z,6.73
2017-04-14T12:14:33.583Z,8.86
2017-04-14T12:15:31.959Z,8.37
2017-04-14T12:16:30.199Z,8.57
2017-04-14T12:17:29.882Z,9.31
2017-04-14T12:18:30.030Z,12.21
2017-04-14T12:19:34.392Z,11.66
2017-04-14T12:20:33.498Z,6.37
2017-04-14T12:21:39.348Z,7.76
2017-04-14T12:22:38.119Z,6.49
2017-04-14T12:23:36.544Z,7.94
2017-04-14T12:24:34.980Z,5.21
2017-04-14T12:25:33.591Z,6.99
2017-04-14T12:26:31.960Z,8.01
2017-04-14T12:27:30.515Z,6.57
2017-04-14T12:28:28.852Z,7.77
2017-04-14T12:29:27.493Z,8.16
2017-04-14T12:30:25.825Z,7.51
2017-04-14T12:31:24.128Z,6.96
2017-04-14T12:32:22.375Z,5.46
2017-04-14T12:33:20.682Z,9.16
2017-04-14T12:34:19.900Z,5.90
2017-04-14T12:35:18.391Z,8.37
2017-04-14T12:36:18.544Z,9.07
2017-04-14T12:37:16.839Z,5.94
2017-04-14T12:38:16.089Z,6.70
2017-04-14T12:39:14.372Z,4.87
2017-04-14T12:40:12.682Z,9.17
2017-04-14T12:41:11.000Z,5.99